Samuel De Champlain — WDC8307 — position and weather

sailwx.info

Track history (hours):
 
Tides and Currents Weather Stations Pressure Air Temp Water Temp Dewpoint Dewpoint Depression Visibility Wind Speed Wind Dir Waves Ship Positions

Samuel De Champlain

Owner: American Transport Leasing, Muskegon, MI. More information available from US FCC via Universal Licensing System and Coast Guard Vessel Documentation Center.

Last reported at 2017-Dec-11 15:00 UTC. Time now 2017-Dec-14 08:21 UTC.
Position N 43°42' W 087°36'.

Length 45 m; draft 5.6 m.

Type: Cargo ship. MMSI: 367084930.

Wind from 200 at 18 knots

Barometer 1011.8 mb
Air temperature -1.6 ° C
Visibility: greater than 5.4 NM

Date/timePositionNaut miles runAvg speedWind from/ knotsBaromVisibWave heightAir tempDewpointWater temp
2017-Dec-11 15:00N 43°42' W 087°36'120 9.2 200 / 181011.8 5.4 -1.6
2017-Dec-11 02:00N 45°30' W 086°24'2411.4 340 / 191017.610.8 -6.1
2017-Dec-10 23:52N 45°47' W 085°59'4 9.7
2017-Dec-10 23:29N 45°49' W 085°55'510.0
2017-Dec-10 23:00N 45°50' W 085°48'2174.6
2017-Dec-10 23:00N 45°48' W 085°48'612.6 350 / 211014.810.8 -7.2
2017-Dec-10 22:30N 45°52' W 085°41'5 9.8
2017-Dec-10 22:00N 45°53' W 085°35'5 9.5
2017-Dec-10 21:30N 45°53' W 085°28'5 9.7
2017-Dec-10 21:00N 45°53' W 085°21'5 9.6
2017-Dec-10 20:30N 45°52' W 085°14'5 9.7
2017-Dec-10 20:00N 45°51' W 085°07'5 9.9
2017-Dec-10 19:30N 45°51' W 084°60'5 9.9
2017-Dec-10 19:00N 45°50' W 084°53'5 9.8
2017-Dec-10 18:30N 45°49' W 084°46'5 9.3
2017-Dec-10 18:00N 45°48' W 084°40'5 9.8
2017-Dec-10 17:30N 45°45' W 084°34'5 9.5
2017-Dec-10 17:00N 45°43' W 084°28'6418.4
2017-Dec-10 17:00N 45°42' W 084°36'1020.4 240 / 181007.7 2.2 -2.7
2017-Dec-10 16:30N 45°41' W 084°22'1610.6
2017-Dec-10 15:00N 45°36' W 084°00'2 7.0 230 / 221007.710.8 -2.7
2017-Dec-10 14:43N 45°34' W 084°01'2 9.7
2017-Dec-10 14:30N 45°33' W 083°58'5 9.7
2017-Dec-10 14:00N 45°31' W 083°52'5 9.8
2017-Dec-10 13:30N 45°29' W 083°46'5 9.7
2017-Dec-10 13:00N 45°27' W 083°39'5 9.6
2017-Dec-10 12:30N 45°25' W 083°33'5 9.5
2017-Dec-10 12:01N 45°23' W 083°27'120 6.3
2017-Dec-09 17:00N 43°30' W 082°30'24 8.1 220 / 111008.1 2.2 -0.0
2017-Dec-09 14:00N 43°06' W 082°24'   180 / 121008.110.8 0.5
2017-Dec-07 01:00N 44°30' W 083°12'101 3.0 290 / 201011.110.8 -2.2
2017-Dec-05 16:00N 45°48' W 084°42'2 0.1 230 / 40995.910.8 3.3
2017-Dec-04 10:30N 45°46' W 084°41'0 0.0
2017-Dec-04 09:59N 45°46' W 084°41'0 0.5
2017-Dec-04 09:30N 45°47' W 084°42'3 6.1
2017-Dec-04 09:00N 45°49' W 084°44'5 9.2
2017-Dec-04 08:30N 45°49' W 084°51'5 9.7
2017-Dec-04 08:00N 45°49' W 084°58'5 9.8
2017-Dec-04 07:30N 45°50' W 085°05'4 7.8
2017-Dec-04 07:00N 45°47' W 085°09'5 9.9
2017-Dec-04 06:30N 45°43' W 085°12'510.3
2017-Dec-04 06:00N 45°38' W 085°17'510.4
2017-Dec-04 05:30N 45°34' W 085°21'510.4
2017-Dec-04 05:00N 45°30' W 085°26'510.4
2017-Dec-04 04:30N 45°26' W 085°30'510.4
2017-Dec-04 04:00N 45°22' W 085°34'510.3
2017-Dec-04 03:30N 45°18' W 085°39'510.4
2017-Dec-04 03:00N 45°13' W 085°43'510.4
2017-Dec-04 02:30N 45°09' W 085°48'510.4
2017-Dec-04 02:00N 45°05' W 085°52'  
Track history (hours):
 
Tides and Currents Weather Stations Pressure Air Temp Water Temp Dewpoint Dewpoint Depression Visibility Wind Speed Wind Dir Waves Ship Positions

Samuel De Champlain

Owner: American Transport Leasing, Muskegon, MI. More information available from US FCC via Universal Licensing System and Coast Guard Vessel Documentation Center.

Last reported at 2017-Dec-11 15:00 UTC. Time now 2017-Dec-14 08:21 UTC.
Position N 43°42' W 087°36'.

Length 45 m; draft 5.6 m.

Type: Cargo ship. MMSI: 367084930.

Wind from 200 at 18 knots

Barometer 1011.8 mb
Air temperature -1.6 ° C
Visibility: greater than 5.4 NM

Date/timePositionNaut miles runAvg speedWind from/ knotsBaromVisibWave heightAir tempDewpointWater temp
2017-Dec-11 15:00N 43°42' W 087°36'120 9.2 200 / 181011.8 5.4 -1.6
2017-Dec-11 02:00N 45°30' W 086°24'2411.4 340 / 191017.610.8 -6.1
2017-Dec-10 23:52N 45°47' W 085°59'4 9.7
2017-Dec-10 23:29N 45°49' W 085°55'510.0
2017-Dec-10 23:00N 45°50' W 085°48'2174.6
2017-Dec-10 23:00N 45°48' W 085°48'612.6 350 / 211014.810.8 -7.2
2017-Dec-10 22:30N 45°52' W 085°41'5 9.8
2017-Dec-10 22:00N 45°53' W 085°35'5 9.5
2017-Dec-10 21:30N 45°53' W 085°28'5 9.7
2017-Dec-10 21:00N 45°53' W 085°21'5 9.6
2017-Dec-10 20:30N 45°52' W 085°14'5 9.7
2017-Dec-10 20:00N 45°51' W 085°07'5 9.9
2017-Dec-10 19:30N 45°51' W 084°60'5 9.9
2017-Dec-10 19:00N 45°50' W 084°53'5 9.8
2017-Dec-10 18:30N 45°49' W 084°46'5 9.3
2017-Dec-10 18:00N 45°48' W 084°40'5 9.8
2017-Dec-10 17:30N 45°45' W 084°34'5 9.5
2017-Dec-10 17:00N 45°43' W 084°28'6418.4
2017-Dec-10 17:00N 45°42' W 084°36'1020.4 240 / 181007.7 2.2 -2.7
2017-Dec-10 16:30N 45°41' W 084°22'1610.6
2017-Dec-10 15:00N 45°36' W 084°00'2 7.0 230 / 221007.710.8 -2.7
2017-Dec-10 14:43N 45°34' W 084°01'2 9.7
2017-Dec-10 14:30N 45°33' W 083°58'5 9.7
2017-Dec-10 14:00N 45°31' W 083°52'5 9.8
2017-Dec-10 13:30N 45°29' W 083°46'5 9.7
2017-Dec-10 13:00N 45°27' W 083°39'5 9.6
2017-Dec-10 12:30N 45°25' W 083°33'5 9.5
2017-Dec-10 12:01N 45°23' W 083°27'120 6.3
2017-Dec-09 17:00N 43°30' W 082°30'24 8.1 220 / 111008.1 2.2 -0.0
2017-Dec-09 14:00N 43°06' W 082°24'   180 / 121008.110.8 0.5
2017-Dec-07 01:00N 44°30' W 083°12'101 3.0 290 / 201011.110.8 -2.2
2017-Dec-05 16:00N 45°48' W 084°42'2 0.1 230 / 40995.910.8 3.3
2017-Dec-04 10:30N 45°46' W 084°41'0 0.0
2017-Dec-04 09:59N 45°46' W 084°41'0 0.5
2017-Dec-04 09:30N 45°47' W 084°42'3 6.1
2017-Dec-04 09:00N 45°49' W 084°44'5 9.2
2017-Dec-04 08:30N 45°49' W 084°51'5 9.7
2017-Dec-04 08:00N 45°49' W 084°58'5 9.8
2017-Dec-04 07:30N 45°50' W 085°05'4 7.8
2017-Dec-04 07:00N 45°47' W 085°09'5 9.9
2017-Dec-04 06:30N 45°43' W 085°12'510.3
2017-Dec-04 06:00N 45°38' W 085°17'510.4
2017-Dec-04 05:30N 45°34' W 085°21'510.4
2017-Dec-04 05:00N 45°30' W 085°26'510.4
2017-Dec-04 04:30N 45°26' W 085°30'510.4
2017-Dec-04 04:00N 45°22' W 085°34'510.3
2017-Dec-04 03:30N 45°18' W 085°39'510.4
2017-Dec-04 03:00N 45°13' W 085°43'510.4
2017-Dec-04 02:30N 45°09' W 085°48'510.4
2017-Dec-04 02:00N 45°05' W 085°52'  

Dump ship's entire track history